Time;durP1;ratioP1;P1;durP2;ratioP2;P2;SDS_P1;SDS_P2;PMS_P1;PMS_P2;Temp;Humidity;BMP_temperature;BMP_pressure;BME280_temperature;BME280_humidity;BME280_pressure;Samples;Min_cycle;Max_cycle;Signal;HPM_P1;HPM_P2
2024/01/18 00:00:00;;;;;;;5.72;2.85;;;;;;;-3.55;100.00;99533.41;5076786;28;20475;-73
2024/01/18 00:02:26;;;;;;;10.75;3.30;;;;;;;-3.35;100.00;99528.91;5076512;28;20457;-75
2024/01/18 00:04:51;;;;;;;11.93;2.70;;;;;;;-3.20;100.00;99534.09;5058820;28;20028;-75
2024/01/18 00:07:17;;;;;;;5.18;2.80;;;;;;;-3.06;100.00;99538.56;5076856;28;20029;-72
2024/01/18 00:09:42;;;;;;;10.10;2.88;;;;;;;-2.94;100.00;99539.66;5076331;28;20517;-74
2024/01/18 00:12:07;;;;;;;6.95;2.92;;;;;;;-2.86;100.00;99540.06;5076702;28;20029;-73
2024/01/18 00:14:33;;;;;;;5.88;2.40;;;;;;;-2.77;100.00;99549.13;5076301;28;20396;-74
2024/01/18 00:16:58;;;;;;;3.90;2.42;;;;;;;-2.68;100.00;99555.56;5076456;28;20029;-73
2024/01/18 00:19:23;;;;;;;7.05;3.25;;;;;;;-2.64;100.00;99543.22;5076439;28;20074;-73
2024/01/18 00:21:49;;;;;;;8.93;2.40;;;;;;;-2.58;100.00;99554.13;5058275;28;20043;-73
2024/01/18 00:24:15;;;;;;;7.43;2.40;;;;;;;-2.56;100.00;99557.47;5076088;28;20322;-73
2024/01/18 00:26:40;;;;;;;6.63;2.75;;;;;;;-2.58;100.00;99551.53;5075878;28;20078;-74
2024/01/18 00:29:05;;;;;;;6.22;2.33;;;;;;;-2.67;100.00;99552.88;5075731;28;20108;-73
2024/01/18 00:31:31;;;;;;;3.58;2.10;;;;;;;-2.79;100.00;99553.59;5058506;28;20033;-72
2024/01/18 00:33:59;;;;;;;3.03;2.13;;;;;;;-2.93;100.00;99558.69;5041736;28;20108;-73
2024/01/18 00:36:25;;;;;;;4.55;1.98;;;;;;;-3.10;100.00;99557.88;5075908;28;20062;-73
2024/01/18 00:38:50;;;;;;;4.82;1.90;;;;;;;-3.25;100.00;99554.31;5075855;28;20034;-73
2024/01/18 00:41:16;;;;;;;3.40;1.80;;;;;;;-3.39;100.00;99559.41;5075679;28;20119;-74
2024/01/18 00:43:41;;;;;;;2.13;1.80;;;;;;;-3.51;100.00;99554.88;5076023;28;20476;-83
2024/01/18 00:46:07;;;;;;;5.40;2.10;;;;;;;-3.65;100.00;99568.59;5075733;28;20059;-73
2024/01/18 00:48:32;;;;;;;2.00;1.70;;;;;;;-3.78;100.00;99571.00;5075715;28;20060;-72
2024/01/18 00:50:58;;;;;;;6.07;2.00;;;;;;;-3.88;100.00;99567.19;5075644;28;20033;-73
2024/01/18 00:53:23;;;;;;;3.38;1.55;;;;;;;-4.01;100.00;99575.59;5076301;28;20207;-74
2024/01/18 00:55:49;;;;;;;1.80;1.50;;;;;;;-4.11;100.00;99577.81;5057837;28;20036;-73
2024/01/18 00:58:14;;;;;;;2.30;1.60;;;;;;;-4.20;100.00;99585.25;5075526;28;20515;-73
2024/01/18 01:00:39;;;;;;;5.40;2.00;;;;;;;-4.28;100.00;99586.44;5075515;28;20029;-74
2024/01/18 01:03:05;;;;;;;6.72;1.55;;;;;;;-4.32;100.00;99581.50;5057174;28;20071;-73
2024/01/18 01:05:30;;;;;;;3.10;1.70;;;;;;;-4.33;100.00;99591.06;5075710;28;20059;-72
2024/01/18 01:07:56;;;;;;;3.08;1.80;;;;;;;-4.32;100.00;99594.47;5075270;28;20115;-72
2024/01/18 01:10:21;;;;;;;4.75;1.77;;;;;;;-4.32;100.00;99600.50;5056973;28;20047;-73
2024/01/18 01:12:47;;;;;;;2.58;1.80;;;;;;;-4.28;100.00;99604.63;5057287;28;20115;-76
2024/01/18 01:15:12;;;;;;;3.63;1.67;;;;;;;-4.23;100.00;99601.81;5057158;28;20028;-74
2024/01/18 01:17:38;;;;;;;6.28;1.50;;;;;;;-4.19;100.00;99603.34;5075342;28;20470;-73
2024/01/18 01:20:05;;;;;;;3.63;1.67;;;;;;;-4.15;100.00;99604.03;5075144;28;20427;-73
2024/01/18 01:22:30;;;;;;;3.22;1.60;;;;;;;-4.12;100.00;99604.72;5075352;28;20030;-74
2024/01/18 01:24:56;;;;;;;2.45;1.50;;;;;;;-4.09;100.00;99612.38;5074907;28;20043;-73
2024/01/18 01:27:21;;;;;;;5.22;1.50;;;;;;;-4.03;100.00;99610.38;5075178;28;20032;-73
2024/01/18 01:29:46;;;;;;;3.38;1.73;;;;;;;-3.99;100.00;99617.09;5075182;28;20513;-73
2024/01/18 01:32:12;;;;;;;2.38;1.30;;;;;;;-3.95;100.00;99619.47;5074594;28;20029;-73
2024/01/18 01:34:37;;;;;;;3.38;1.85;;;;;;;-3.89;100.00;99626.13;5074830;28;20040;-73
2024/01/18 01:37:03;;;;;;;7.00;1.85;;;;;;;-3.84;100.00;99616.31;5074757;28;20059;-74
2024/01/18 01:39:28;;;;;;;5.75;1.77;;;;;;;-3.80;100.00;99617.88;5056709;28;20032;-73
2024/01/18 01:41:54;;;;;;;5.93;1.60;;;;;;;-3.83;100.00;99620.63;5056810;28;20055;-75
2024/01/18 01:44:19;;;;;;;5.80;1.90;;;;;;;-3.86;100.00;99625.16;5074688;28;20029;-72
2024/01/18 01:46:44;;;;;;;10.02;2.13;;;;;;;-3.84;100.00;99638.91;5074610;28;20456;-72
2024/01/18 01:49:10;;;;;;;5.22;1.85;;;;;;;-3.80;100.00;99650.81;5074097;28;20040;-74
2024/01/18 01:51:48;;;;;;;2.15;1.58;;;;;;;-3.79;100.00;99649.88;5074265;28;20061;-73
2024/01/18 01:54:14;;;;;;;8.95;2.22;;;;;;;-3.80;100.00;99654.25;5074519;28;20698;-74
2024/01/18 01:56:42;;;;;;;3.08;1.70;;;;;;;-3.80;100.00;99658.63;5074343;28;20120;-74
2024/01/18 01:59:10;;;;;;;4.45;1.70;;;;;;;-3.80;100.00;99666.41;5056478;28;20115;-73
2024/01/18 02:01:37;;;;;;;7.85;2.10;;;;;;;-3.80;100.00;99669.03;5074173;28;20028;-73
2024/01/18 02:04:03;;;;;;;3.15;1.50;;;;;;;-3.77;100.00;99671.47;5074235;28;20516;-74
2024/01/18 02:06:30;;;;;;;6.80;1.15;;;;;;;-3.64;100.00;99674.28;5073080;28;20108;-80
2024/01/18 02:08:56;;;;;;;5.88;1.38;;;;;;;-3.55;100.00;99669.47;5073119;28;20033;-79
2024/01/18 02:11:21;;;;;;;2.55;1.25;;;;;;;-3.51;100.00;99672.72;5072875;28;20101;-80
2024/01/18 02:13:48;;;;;;;5.15;1.67;;;;;;;-3.53;100.00;99665.94;5073403;28;20120;-80
2024/01/18 02:16:14;;;;;;;1.13;0.80;;;;;;;-3.61;100.00;99664.56;5073336;28;20427;-80
2024/01/18 02:18:39;;;;;;;1.63;0.95;;;;;;;-3.67;100.00;99667.50;5072282;28;20028;-81
2024/01/18 02:21:07;;;;;;;12.40;1.52;;;;;;;-3.76;100.00;99670.56;5073013;28;20040;-80
2024/01/18 02:23:34;;;;;;;2.05;0.70;;;;;;;-3.86;100.00;99666.72;5072977;28;20124;-81
2024/01/18 02:25:59;;;;;;;2.17;0.70;;;;;;;-3.96;100.00;99664.56;5072920;28;20035;-80
2024/01/18 02:28:25;;;;;;;4.25;1.00;;;;;;;-4.05;100.00;99675.41;5073200;28;20029;-81
2024/01/18 02:30:50;;;;;;;3.45;0.95;;;;;;;-4.16;100.00;99665.56;5072566;28;20033;-81
2024/01/18 02:33:16;;;;;;;4.65;0.93;;;;;;;-4.23;100.00;99665.94;5073801;28;20029;-81
2024/01/18 02:35:41;;;;;;;3.97;1.15;;;;;;;-4.34;100.00;99672.47;5073848;28;20028;-81
2024/01/18 02:38:07;;;;;;;4.68;1.05;;;;;;;-4.43;100.00;99678.94;5073156;28;20040;-81
2024/01/18 02:40:32;;;;;;;3.15;0.70;;;;;;;-4.50;100.00;99674.94;5072975;28;20024;-80
2024/01/18 02:42:58;;;;;;;4.10;1.98;;;;;;;-4.57;100.00;99670.94;5072955;28;20476;-81
2024/01/18 02:45:24;;;;;;;4.97;1.30;;;;;;;-4.65;100.00;99666.09;5073027;28;20456;-81
2024/01/18 02:47:49;;;;;;;1.17;0.60;;;;;;;-4.72;100.00;99667.31;5072792;28;20028;-81
2024/01/18 02:50:17;;;;;;;3.58;1.48;;;;;;;-4.76;100.00;99665.78;5073344;28;20372;-81
2024/01/18 02:52:42;;;;;;;2.95;0.80;;;;;;;-4.78;100.00;99665.00;5072583;28;20053;-82
2024/01/18 02:55:08;;;;;;;5.28;0.80;;;;;;;-4.82;100.00;99668.63;5072700;28;20111;-81
2024/01/18 02:57:33;;;;;;;1.80;0.70;;;;;;;-4.86;100.00;99664.50;5072793;28;20123;-81
2024/01/18 02:59:59;;;;;;;2.78;0.95;;;;;;;-4.90;100.00;99668.16;5072821;28;20082;-81
2024/01/18 03:02:24;;;;;;;4.63;0.80;;;;;;;-4.98;100.00;99669.34;5072482;28;20036;-81
2024/01/18 03:04:49;;;;;;;0.93;0.63;;;;;;;-5.02;100.00;99670.38;5054684;28;20024;-82
2024/01/18 03:07:15;;;;;;;1.70;0.70;;;;;;;-5.06;100.00;99660.22;5072780;28;20115;-82
2024/01/18 03:09:40;;;;;;;5.43;1.10;;;;;;;-5.09;100.00;99666.41;5072465;28;20493;-82
2024/01/18 03:12:06;;;;;;;2.60;1.10;;;;;;;-5.11;100.00;99667.38;5072446;28;20040;-81
2024/01/18 03:14:31;;;;;;;1.35;0.80;;;;;;;-5.15;100.00;99667.50;5072715;28;20119;-82
2024/01/18 03:16:56;;;;;;;1.35;0.80;;;;;;;-5.16;100.00;99670.16;5055133;28;20024;-82
2024/01/18 03:19:22;;;;;;;1.63;0.85;;;;;;;-5.17;100.00;99671.91;5072692;28;20495;-82
2024/01/18 03:21:47;;;;;;;0.93;0.70;;;;;;;-5.20;100.00;99673.81;5072940;28;20036;-82
2024/01/18 03:24:13;;;;;;;1.75;0.68;;;;;;;-5.25;100.00;99680.97;5072146;28;20040;-82
2024/01/18 03:26:38;;;;;;;1.63;0.85;;;;;;;-5.28;100.00;99681.06;5073202;28;20040;-83
2024/01/18 03:29:03;;;;;;;7.65;1.45;;;;;;;-5.27;100.00;99681.03;5072877;28;20384;-84
2024/01/18 03:31:29;;;;;;;3.65;1.08;;;;;;;-5.29;100.00;99689.78;5074010;28;20116;-82
2024/01/18 03:33:54;;;;;;;1.33;1.05;;;;;;;-5.24;100.00;99685.22;5076364;28;20493;-82
2024/01/18 03:36:20;;;;;;;3.33;1.30;;;;;;;-5.13;100.00;99691.63;5076547;28;20409;-82
2024/01/18 03:38:45;;;;;;;7.68;1.40;;;;;;;-5.13;100.00;99696.81;5076073;28;20063;-83
2024/01/18 03:41:10;;;;;;;7.78;0.88;;;;;;;-5.20;100.00;99686.78;5076199;28;20029;-81
2024/01/18 03:43:36;;;;;;;5.53;1.52;;;;;;;-5.21;100.00;99692.84;5075847;28;20060;-83
2024/01/18 03:46:01;;;;;;;3.15;1.10;;;;;;;-5.27;100.00;99691.41;5076471;28;20024;-83
2024/01/18 03:48:27;;;;;;;2.03;1.05;;;;;;;-5.27;100.00;99690.53;5076418;28;20449;-82
2024/01/18 03:50:52;;;;;;;6.13;1.13;;;;;;;-5.32;100.00;99688.97;5075949;28;20113;-83
2024/01/18 03:53:18;;;;;;;2.30;0.70;;;;;;;-5.23;100.00;99690.34;5076075;28;20484;-83
2024/01/18 03:55:43;;;;;;;1.65;0.85;;;;;;;-5.17;100.00;99690.06;5058275;28;20162;-83
2024/01/18 03:58:09;;;;;;;2.88;0.80;;;;;;;-5.16;100.00;99696.94;5076806;28;20029;-83
2024/01/18 04:00:34;;;;;;;3.35;1.60;;;;;;;-5.22;100.00;99705.00;5057979;28;20365;-83
2024/01/18 04:02:59;;;;;;;3.22;1.13;;;;;;;-5.28;100.00;99696.63;5076046;28;20039;-83
2024/01/18 04:05:25;;;;;;;1.25;0.88;;;;;;;-5.35;100.00;99698.66;5075601;28;20033;-83
2024/01/18 04:07:50;;;;;;;6.30;1.27;;;;;;;-5.43;100.00;99705.91;5075923;28;20403;-83
2024/01/18 04:10:15;;;;;;;1.33;1.20;;;;;;;-5.50;100.00;99698.38;5076073;28;20306;-82
2024/01/18 04:12:42;;;;;;;1.85;1.10;;;;;;;-5.53;100.00;99702.88;5075921;28;20164;-84
2024/01/18 04:15:08;;;;;;;3.10;0.70;;;;;;;-5.54;100.00;99701.19;5057976;28;20036;-83
2024/01/18 04:17:34;;;;;;;2.85;0.82;;;;;;;-5.60;100.00;99706.63;5075148;28;20111;-83
2024/01/18 04:19:59;;;;;;;0.98;0.68;;;;;;;-5.65;100.00;99708.59;5075258;28;20086;-83
2024/01/18 04:22:25;;;;;;;1.20;0.98;;;;;;;-5.70;100.00;99713.97;5075643;28;20059;-83
2024/01/18 04:24:53;;;;;;;1.33;1.00;;;;;;;-5.74;100.00;99705.44;5075332;28;20104;-83
2024/01/18 04:27:19;;;;;;;1.17;0.93;;;;;;;-5.77;100.00;99713.34;5075438;28;20120;-82
2024/01/18 04:29:44;;;;;;;2.40;1.50;;;;;;;-5.78;100.00;99708.22;5075407;28;20028;-83
2024/01/18 04:32:09;;;;;;;5.05;1.25;;;;;;;-5.73;100.00;99714.06;5075254;28;20036;-83
2024/01/18 04:34:35;;;;;;;3.60;1.10;;;;;;;-5.70;100.00;99716.56;5057332;28;20111;-83
2024/01/18 04:37:00;;;;;;;2.38;1.00;;;;;;;-5.72;100.00;99723.53;5075954;28;20029;-83
2024/01/18 04:39:27;;;;;;;2.80;1.10;;;;;;;-5.75;100.00;99729.66;5075095;28;20096;-83
2024/01/18 04:41:52;;;;;;;7.28;1.20;;;;;;;-5.79;100.00;99729.84;5074080;28;20115;-83
2024/01/18 04:44:17;;;;;;;5.90;1.40;;;;;;;-5.75;100.00;99740.03;5075304;28;20052;-83
2024/01/18 04:46:43;;;;;;;1.30;0.95;;;;;;;-5.72;100.00;99741.66;5074675;28;20101;-83
2024/01/18 04:49:08;;;;;;;1.35;1.00;;;;;;;-5.74;100.00;99740.91;5056644;28;20258;-83
2024/01/18 04:51:34;;;;;;;4.05;1.15;;;;;;;-5.75;100.00;99736.59;5074472;28;20135;-83
2024/01/18 04:53:59;;;;;;;1.30;1.08;;;;;;;-5.74;100.00;99738.31;5066794;28;20037;-83
2024/01/18 04:56:26;;;;;;;2.22;1.27;;;;;;;-5.76;100.00;99738.38;5075043;28;20084;-82
2024/01/18 04:58:51;;;;;;;3.70;1.00;;;;;;;-5.78;100.00;99740.16;5075570;28;20051;-83
2024/01/18 05:01:17;;;;;;;4.53;1.17;;;;;;;-5.81;100.00;99735.09;5075407;28;20033;-83
2024/01/18 05:03:43;;;;;;;1.48;0.90;;;;;;;-5.80;100.00;99734.22;5073336;28;20035;-83
2024/01/18 05:06:09;;;;;;;4.60;1.10;;;;;;;-5.82;100.00;99746.41;5075664;28;20063;-83
2024/01/18 05:08:34;;;;;;;7.72;1.70;;;;;;;-5.81;100.00;99749.81;5074931;28;20090;-83
2024/01/18 05:10:59;;;;;;;4.78;1.05;;;;;;;-5.82;100.00;99751.56;5074541;28;20115;-83
2024/01/18 05:13:26;;;;;;;2.95;1.10;;;;;;;-5.79;100.00;99758.38;5075011;28;20027;-82
2024/01/18 05:15:51;;;;;;;2.88;1.23;;;;;;;-5.77;100.00;99748.81;5075017;28;20379;-83
2024/01/18 05:18:16;;;;;;;2.97;1.20;;;;;;;-5.78;100.00;99763.47;5074481;28;20024;-83
2024/01/18 05:20:42;;;;;;;1.23;1.10;;;;;;;-5.85;100.00;99760.31;5074916;28;20033;-83
2024/01/18 05:23:07;;;;;;;2.20;1.00;;;;;;;-5.89;100.00;99771.69;5075052;28;20051;-83
2024/01/18 05:25:32;;;;;;;1.30;1.20;;;;;;;-5.90;100.00;99774.34;5074901;28;20067;-83
2024/01/18 05:28:00;;;;;;;2.83;1.38;;;;;;;-5.92;100.00;99777.00;5074706;28;20071;-82
2024/01/18 05:30:25;;;;;;;2.65;1.10;;;;;;;-5.93;100.00;99780.47;5057184;28;20032;-83
2024/01/18 05:32:51;;;;;;;4.32;1.40;;;;;;;-5.91;100.00;99794.25;5074866;28;20033;-82
2024/01/18 05:35:16;;;;;;;4.40;1.23;;;;;;;-5.90;100.00;99792.47;5075534;28;20028;-83
2024/01/18 05:37:42;;;;;;;3.72;1.60;;;;;;;-5.90;100.00;99792.47;5075416;28;20101;-83
2024/01/18 05:40:08;;;;;;;3.60;1.38;;;;;;;-5.87;100.00;99798.41;5075122;28;20037;-83
2024/01/18 05:42:34;;;;;;;3.55;1.80;;;;;;;-5.82;100.00;99799.94;5074137;28;20198;-83
2024/01/18 05:44:59;;;;;;;2.42;1.35;;;;;;;-5.87;100.00;99794.94;5074316;28;20465;-83
2024/01/18 05:47:25;;;;;;;3.55;1.60;;;;;;;-5.93;100.00;99797.78;5074169;28;20036;-83
2024/01/18 05:49:50;;;;;;;5.10;1.50;;;;;;;-6.00;100.00;99797.22;5073920;28;20142;-83
2024/01/18 05:52:16;;;;;;;2.75;1.60;;;;;;;-6.05;100.00;99799.13;5081167;28;20084;-83
2024/01/18 05:54:42;;;;;;;3.80;1.50;;;;;;;-6.09;100.00;99803.59;5092987;28;20460;-82
2024/01/18 05:57:08;;;;;;;2.05;1.48;;;;;;;-6.11;100.00;99796.78;5094093;28;20039;-83
2024/01/18 05:59:33;;;;;;;4.10;1.95;;;;;;;-6.13;100.00;99814.13;5093404;28;20027;-82
2024/01/18 06:01:59;;;;;;;1.92;1.40;;;;;;;-6.16;100.00;99802.16;5093577;28;20024;-82
2024/01/18 06:04:25;;;;;;;2.75;1.33;;;;;;;-6.16;100.00;99811.66;5094094;28;20024;-83
2024/01/18 06:06:51;;;;;;;3.83;1.63;;;;;;;-6.16;100.00;99815.09;5094084;28;20081;-83
2024/01/18 06:09:18;;;;;;;1.67;1.35;;;;;;;-6.15;100.00;99815.94;5093994;28;20027;-83
2024/01/18 06:11:44;;;;;;;2.92;1.45;;;;;;;-6.13;100.00;99814.97;5094168;28;20032;-83
2024/01/18 06:14:09;;;;;;;4.90;1.50;;;;;;;-6.10;100.00;99826.97;5076157;28;20089;-83
2024/01/18 06:16:35;;;;;;;3.05;2.05;;;;;;;-6.13;100.00;99829.69;5093462;28;20032;-83
2024/01/18 06:19:00;;;;;;;4.68;2.88;;;;;;;-6.15;100.00;99829.75;5093913;28;20081;-83
2024/01/18 06:21:26;;;;;;;4.03;2.63;;;;;;;-6.18;100.00;99829.81;5094205;28;20118;-83
2024/01/18 06:23:51;;;;;;;6.50;2.00;;;;;;;-6.19;100.00;99828.16;5093978;28;20028;-83
2024/01/18 06:26:16;;;;;;;3.55;2.00;;;;;;;-6.19;100.00;99838.53;5093515;28;20027;-83
2024/01/18 06:28:42;;;;;;;3.22;2.10;;;;;;;-6.20;100.00;99842.00;5094016;28;20144;-83
2024/01/18 06:31:08;;;;;;;3.97;1.73;;;;;;;-6.18;100.00;99845.38;5093945;28;20047;-83
2024/01/18 06:33:33;;;;;;;3.53;2.33;;;;;;;-6.14;100.00;99846.09;5093325;28;20086;-82
2024/01/18 06:35:59;;;;;;;3.83;2.20;;;;;;;-6.05;100.00;99838.00;5093425;28;20040;-83
2024/01/18 06:38:24;;;;;;;5.75;2.10;;;;;;;-6.00;100.00;99843.84;5093163;28;20032;-82
2024/01/18 06:40:49;;;;;;;7.13;1.98;;;;;;;-6.02;100.00;99848.22;5075086;28;20031;-82
2024/01/18 06:43:16;;;;;;;5.75;2.50;;;;;;;-6.03;100.00;99857.75;5093451;28;20044;-82
2024/01/18 06:45:42;;;;;;;8.13;2.22;;;;;;;-6.06;100.00;99865.66;5093116;28;20024;-83
2024/01/18 06:48:07;;;;;;;14.10;3.13;;;;;;;-5.95;100.00;99862.63;5074352;28;20468;-82
2024/01/18 06:50:33;;;;;;;4.88;2.47;;;;;;;-5.88;100.00;99873.56;5092887;28;20060;-82
2024/01/18 06:52:59;;;;;;;4.63;2.42;;;;;;;-5.86;100.00;99871.78;5092264;28;20043;-83
2024/01/18 06:55:26;;;;;;;3.58;2.25;;;;;;;-5.87;100.00;99876.13;5093260;28;20051;-85
2024/01/18 06:57:51;;;;;;;4.53;2.30;;;;;;;-5.90;100.00;99880.56;5092691;28;20040;-79
2024/01/18 07:00:23;;;;;;;4.82;2.05;;;;;;;-5.90;100.00;99876.22;5092384;28;20028;-80
2024/01/18 07:02:48;;;;;;;;;;;;;;;-5.92;100.00;99879.78;5092796;28;20028;-80
2024/01/18 07:05:14;;;;;;;7.47;2.30;;;;;;;-5.95;100.00;99885.09;5092156;28;20351;-81
2024/01/18 07:07:39;;;;;;;7.18;2.25;;;;;;;-5.96;100.00;99886.81;5092061;28;20380;-81
2024/01/18 07:10:06;;;;;;;4.15;2.35;;;;;;;-5.96;100.00;99892.00;5092025;28;20082;-81
2024/01/18 07:12:32;;;;;;;9.15;2.53;;;;;;;-5.98;100.00;99898.19;5092138;28;20482;-80
2024/01/18 07:14:58;;;;;;;5.82;2.28;;;;;;;-6.03;100.00;99900.94;5074313;28;20034;-81
2024/01/18 07:17:23;;;;;;;9.10;2.58;;;;;;;-6.07;100.00;99904.56;5092375;28;20035;-81
2024/01/18 07:19:49;;;;;;;8.68;2.65;;;;;;;-6.14;100.00;99903.91;5091809;28;20028;-81
2024/01/18 07:22:14;;;;;;;3.90;1.95;;;;;;;-6.18;100.00;99904.09;5073918;28;20042;-82
2024/01/18 07:24:40;;;;;;;3.55;2.40;;;;;;;-6.23;100.00;99910.28;5091863;28;20024;-82
2024/01/18 07:27:09;;;;;;;4.80;2.10;;;;;;;-6.26;100.00;99915.56;5092194;28;20028;-81
2024/01/18 07:29:35;;;;;;;5.93;3.00;;;;;;;-6.30;100.00;99924.38;5091776;28;20032;-81
2024/01/18 07:32:01;;;;;;;12.60;5.85;;;;;;;-6.33;100.00;99924.44;5092554;28;20047;-81
2024/01/18 07:34:27;;;;;;;10.50;4.60;;;;;;;-6.35;100.00;99928.00;5092415;28;20528;-81
2024/01/18 07:36:52;;;;;;;7.93;3.58;;;;;;;-6.37;100.00;99925.47;5091878;28;20028;-81
2024/01/18 07:39:18;;;;;;;6.28;2.60;;;;;;;-6.38;100.00;99936.72;5092091;28;20036;-81
2024/01/18 07:41:44;;;;;;;5.32;2.60;;;;;;;-6.38;100.00;99934.97;5092495;28;20032;-82
2024/01/18 07:44:10;;;;;;;3.95;2.40;;;;;;;-6.34;100.00;99938.31;5092884;28;20040;-82
2024/01/18 07:46:35;;;;;;;6.13;2.40;;;;;;;-6.32;100.00;99933.91;5092744;28;20039;-81
2024/01/18 07:49:01;;;;;;;6.35;2.58;;;;;;;-6.32;100.00;99941.69;5093143;28;20073;-81
2024/01/18 07:51:27;;;;;;;11.85;2.60;;;;;;;-6.30;100.00;99951.97;5093137;28;20085;-81
2024/01/18 07:53:53;;;;;;;3.95;2.53;;;;;;;-6.26;100.00;99950.97;5074473;28;20152;-79
2024/01/18 07:56:18;;;;;;;7.70;3.08;;;;;;;-6.21;100.00;99956.84;5092944;28;20101;-80
2024/01/18 07:58:44;;;;;;;4.93;2.55;;;;;;;-6.19;100.00;99949.88;5093478;28;20035;-80
2024/01/18 08:01:09;;;;;;;2.95;2.55;;;;;;;-6.19;100.00;99957.66;5092616;28;20399;-80
2024/01/18 08:03:35;;;;;;;6.65;2.60;;;;;;;-6.20;100.00;99966.31;5092754;28;20384;-81
2024/01/18 08:06:00;;;;;;;10.13;2.88;;;;;;;-6.20;100.00;99964.53;5092623;28;20047;-81
2024/01/18 08:08:26;;;;;;;6.90;3.15;;;;;;;-6.19;100.00;99970.59;5092548;28;20074;-82
2024/01/18 08:10:51;;;;;;;6.60;2.63;;;;;;;-6.15;100.00;99979.94;5092596;28;20460;-80
2024/01/18 08:13:17;;;;;;;6.03;2.40;;;;;;;-6.08;100.00;99986.56;5092648;28;20395;-81
2024/01/18 08:15:42;;;;;;;5.32;2.88;;;;;;;-6.04;100.00;99988.16;5092610;28;20028;-81
2024/01/18 08:18:08;;;;;;;6.25;2.60;;;;;;;-6.00;100.00;99983.75;5095085;28;20032;-81
2024/01/18 08:20:33;;;;;;;8.63;3.40;;;;;;;-5.91;100.00;99993.72;5095973;28;20039;-81
2024/01/18 08:22:59;;;;;;;5.38;2.83;;;;;;;-5.80;100.00;99990.75;5077949;28;20391;-81
2024/01/18 08:25:24;;;;;;;8.20;3.05;;;;;;;-5.65;100.00;99991.09;5096399;28;20038;-80
2024/01/18 08:27:54;;;;;;;6.43;3.05;;;;;;;-5.57;100.00;99992.50;5096356;28;20032;-80
2024/01/18 08:30:19;;;;;;;6.78;3.47;;;;;;;-5.46;100.00;100002.47;5096209;28;20413;-81
2024/01/18 08:32:45;;;;;;;9.65;2.92;;;;;;;-5.37;100.00;100007.28;5096399;28;20035;-81
2024/01/18 08:35:10;;;;;;;6.63;3.25;;;;;;;-5.27;100.00;100017.31;5096262;28;20407;-80
2024/01/18 08:37:37;;;;;;;4.65;3.15;;;;;;;-5.13;100.00;100020.22;5096371;28;20028;-81
2024/01/18 08:40:03;;;;;;;13.45;3.63;;;;;;;-4.96;100.00;100027.34;5096121;28;20032;-82
2024/01/18 08:42:28;;;;;;;10.05;3.90;;;;;;;-4.72;100.00;100027.28;5095732;28;20043;-82
2024/01/18 08:44:54;;;;;;;11.10;3.55;;;;;;;-4.45;100.00;100027.91;5095430;28;20373;-82
2024/01/18 08:47:19;;;;;;;11.05;3.15;;;;;;;-4.18;100.00;100038.91;5077896;28;20055;-82
2024/01/18 08:49:45;;;;;;;8.25;3.22;;;;;;;-3.92;100.00;100042.97;5096446;28;20036;-82
2024/01/18 08:52:10;;;;;;;6.63;3.47;;;;;;;-3.72;100.00;100041.25;5077338;28;20044;-80
2024/01/18 08:54:36;;;;;;;12.63;3.28;;;;;;;-3.51;100.00;100046.41;5095312;28;20048;-81
2024/01/18 08:57:02;;;;;;;5.93;3.05;;;;;;;-3.30;100.00;100047.19;5095798;28;20030;-80
2024/01/18 08:59:27;;;;;;;9.63;3.30;;;;;;;-3.04;100.00;100049.44;5096110;28;20034;-80
2024/01/18 09:01:52;;;;;;;9.30;2.72;;;;;;;-2.86;100.00;100055.53;5095796;28;20115;-81
2024/01/18 09:04:18;;;;;;;7.13;2.80;;;;;;;-2.72;100.00;100067.06;5096131;28;20344;-84
2024/01/18 09:06:43;;;;;;;5.18;2.28;;;;;;;-2.56;100.00;100073.22;5077850;28;20058;-80
2024/01/18 09:09:09;;;;;;;9.02;2.80;;;;;;;-2.37;100.00;100093.19;5095584;28;20028;-80
2024/01/18 09:11:36;;;;;;;8.20;3.15;;;;;;;-2.24;100.00;100103.84;5095329;28;20471;-80
2024/01/18 09:14:01;;;;;;;9.43;1.67;;;;;;;-2.12;100.00;100100.63;5095423;28;20060;-81
2024/01/18 09:16:27;;;;;;;3.80;1.50;;;;;;;-2.08;100.00;100111.75;5095391;28;20035;-81
2024/01/18 09:18:52;;;;;;;2.75;1.30;;;;;;;-2.05;100.00;100103.78;5077512;28;20033;-79
2024/01/18 09:21:18;;;;;;;4.47;1.30;;;;;;;-2.03;100.00;100118.44;5076959;28;20028;-80
2024/01/18 09:23:44;;;;;;;2.17;1.35;;;;;;;-2.00;100.00;100130.47;5076242;28;20484;-80
2024/01/18 09:26:09;;;;;;;3.17;1.60;;;;;;;-1.97;100.00;100130.31;5076373;28;20032;-81
2024/01/18 09:28:34;;;;;;;5.70;1.33;;;;;;;-1.96;100.00;100129.41;5075247;28;20032;-80
2024/01/18 09:31:00;;;;;;;1.83;1.20;;;;;;;-1.95;100.00;100129.31;5094573;28;20165;-81
2024/01/18 09:33:25;;;;;;;5.88;1.80;;;;;;;-1.92;100.00;100136.16;5094368;28;20035;-81
2024/01/18 09:35:52;;;;;;;6.10;1.77;;;;;;;-1.91;100.00;100143.06;5094095;28;20035;-80
2024/01/18 09:38:18;;;;;;;7.63;1.98;;;;;;;-1.87;100.00;100148.97;5094044;28;20051;-79
2024/01/18 09:40:44;;;;;;;4.47;1.83;;;;;;;-1.86;100.00;100150.66;5094369;28;20133;-79
2024/01/18 09:43:12;;;;;;;3.20;0.90;;;;;;;-1.80;100.00;100166.00;5094180;28;20119;-79
2024/01/18 09:45:41;;;;;;;6.40;1.70;;;;;;;-1.76;100.00;100167.53;5093877;28;20028;-79
2024/01/18 09:48:07;;;;;;;4.15;0.80;;;;;;;-1.67;100.00;100168.81;5093661;28;20035;-79
2024/01/18 09:50:39;;;;;;;8.95;0.98;;;;;;;-1.56;100.00;100179.56;5094208;28;20036;-81
2024/01/18 09:53:05;;;;;;;6.45;1.63;;;;;;;-1.53;100.00;100174.19;5094060;28;20048;-79
2024/01/18 09:55:31;;;;;;;1.80;1.20;;;;;;;-1.53;100.00;100182.00;5076599;28;20133;-78
2024/01/18 09:57:59;;;;;;;6.22;1.13;;;;;;;-1.48;100.00;100187.88;5093496;28;20130;-79
2024/01/18 10:00:29;;;;;;;7.65;1.20;;;;;;;-1.41;100.00;100188.38;5094542;28;20051;-80
2024/01/18 10:02:55;;;;;;;1.13;0.77;;;;;;;-1.28;100.00;100199.88;5075878;28;20341;-80
2024/01/18 10:05:21;;;;;;;4.95;2.08;;;;;;;-1.09;100.00;100198.91;5093678;28;20273;-80
2024/01/18 10:07:46;;;;;;;6.65;1.20;;;;;;;-0.83;100.00;100199.31;5093448;28;20031;-80
2024/01/18 10:10:14;;;;;;;7.15;1.00;;;;;;;-0.64;100.00;100212.22;5093248;28;20038;-80
2024/01/18 10:12:42;;;;;;;1.90;0.70;;;;;;;-0.48;100.00;100207.03;5093762;28;20055;-80
2024/01/18 10:15:09;;;;;;;4.95;1.30;;;;;;;-0.31;100.00;100213.94;5094042;28;20066;-80
2024/01/18 10:17:37;;;;;;;1.85;0.63;;;;;;;-0.09;100.00;100208.34;5094101;28;20040;-78
2024/01/18 10:20:04;;;;;;;8.52;0.90;;;;;;;0.19;100.00;100222.50;5094711;28;20031;-78
2024/01/18 10:22:29;;;;;;;1.83;0.65;;;;;;;0.45;100.00;100228.81;5093912;28;20043;-77
2024/01/18 10:24:55;;;;;;;8.50;1.33;;;;;;;0.62;100.00;100223.47;5094370;28;20040;-77
2024/01/18 10:27:25;;;;;;;8.70;0.85;;;;;;;0.75;100.00;100218.34;5095323;28;20032;-80
2024/01/18 10:29:51;;;;;;;2.92;0.85;;;;;;;0.92;100.00;100213.88;5093772;28;20024;-79
2024/01/18 10:32:17;;;;;;;4.05;0.65;;;;;;;1.07;100.00;100225.22;5094087;28;20043;-80
2024/01/18 10:34:42;;;;;;;0.90;0.47;;;;;;;1.21;100.00;100218.19;5093139;28;20325;-78
2024/01/18 10:37:12;;;;;;;5.88;1.38;;;;;;;1.33;100.00;100224.47;5092887;28;20071;-84
2024/01/18 10:39:39;;;;;;;4.20;1.27;;;;;;;1.50;100.00;100227.81;5092699;28;20061;-82
2024/01/18 10:42:07;;;;;;;3.40;0.80;;;;;;;1.64;100.00;100235.63;5075134;28;20059;-82
2024/01/18 10:44:37;;;;;;;4.68;0.60;;;;;;;1.82;100.00;100243.28;5092876;28;20357;-81
2024/01/18 10:47:14;;;;;;;2.08;0.68;;;;;;;1.92;100.00;100247.00;5093815;28;20024;-86
2024/01/18 10:49:40;;;;;;;3.05;1.23;;;;;;;2.09;100.00;100245.91;5092795;28;20502;-79
2024/01/18 10:52:08;;;;;;;2.92;0.60;;;;;;;2.24;100.00;100250.19;5092886;28;20024;-80
2024/01/18 10:54:34;;;;;;;3.60;0.80;;;;;;;2.52;100.00;100251.00;5070961;28;20079;-80
2024/01/18 10:56:59;;;;;;;1.52;0.60;;;;;;;2.75;100.00;100246.00;5072737;28;20417;-81
2024/01/18 10:59:29;;;;;;;5.95;1.08;;;;;;;2.98;100.00;100249.69;5072707;28;20068;-81
2024/01/18 11:01:59;;;;;;;3.35;0.60;;;;;;;3.33;100.00;100255.16;5072871;28;20029;-81
2024/01/18 11:04:33;;;;;;;2.08;1.15;;;;;;;3.88;100.00;100257.44;5072872;28;20047;-79
2024/01/18 11:06:58;;;;;;;6.22;1.80;;;;;;;4.75;100.00;100247.53;5073045;28;20101;-83
2024/01/18 11:09:30;;;;;;;1.85;1.02;;;;;;;5.76;100.00;100276.75;5072645;28;20033;-82
2024/01/18 11:11:56;;;;;;;3.55;0.88;;;;;;;5.17;100.00;100289.22;5073329;28;20486;-84
2024/01/18 11:14:23;;;;;;;6.18;0.80;;;;;;;4.30;100.00;100284.28;5073633;28;20043;-83
2024/01/18 11:16:48;;;;;;;2.67;0.63;;;;;;;3.44;100.00;100293.03;5072392;28;20040;-85